sensor_id;sensor_type;location;lat;lon;timestamp;P1;durP1;ratioP1;P2;durP2;ratioP2
49109;SDS011;34921;52.320;16.142;2022-11-15T00:01:30;75.83;;;41.53;;
49109;SDS011;34921;52.320;16.142;2022-11-15T00:03:57;79.00;;;41.73;;
49109;SDS011;34921;52.320;16.142;2022-11-15T00:06:24;84.32;;;43.63;;
49109;SDS011;34921;52.320;16.142;2022-11-15T00:08:51;70.03;;;36.17;;
49109;SDS011;34921;52.320;16.142;2022-11-15T00:11:18;68.17;;;36.90;;
49109;SDS011;34921;52.320;16.142;2022-11-15T00:13:45;68.90;;;37.03;;
49109;SDS011;34921;52.320;16.142;2022-11-15T00:16:12;65.60;;;35.95;;
49109;SDS011;34921;52.320;16.142;2022-11-15T00:18:39;72.32;;;38.30;;
49109;SDS011;34921;52.320;16.142;2022-11-15T00:21:07;66.10;;;37.00;;
49109;SDS011;34921;52.320;16.142;2022-11-15T00:23:35;69.22;;;41.13;;
49109;SDS011;34921;52.320;16.142;2022-11-15T00:26:03;57.48;;;34.25;;
49109;SDS011;34921;52.320;16.142;2022-11-15T00:28:30;60.92;;;36.33;;
49109;SDS011;34921;52.320;16.142;2022-11-15T00:31:04;58.42;;;32.90;;
49109;SDS011;34921;52.320;16.142;2022-11-15T00:33:31;62.65;;;35.83;;
49109;SDS011;34921;52.320;16.142;2022-11-15T00:36:06;62.13;;;35.43;;
49109;SDS011;34921;52.320;16.142;2022-11-15T00:38:33;69.37;;;37.48;;
49109;SDS011;34921;52.320;16.142;2022-11-15T00:41:01;71.20;;;39.13;;
49109;SDS011;34921;52.320;16.142;2022-11-15T00:43:28;67.17;;;36.05;;
49109;SDS011;34921;52.320;16.142;2022-11-15T00:45:55;62.50;;;35.65;;
49109;SDS011;34921;52.320;16.142;2022-11-15T00:48:22;53.50;;;32.30;;
49109;SDS011;34921;52.320;16.142;2022-11-15T00:50:49;59.08;;;33.78;;
49109;SDS011;34921;52.320;16.142;2022-11-15T00:53:16;50.48;;;30.27;;
49109;SDS011;34921;52.320;16.142;2022-11-15T00:55:44;50.52;;;30.30;;
49109;SDS011;34921;52.320;16.142;2022-11-15T00:58:10;48.15;;;29.48;;
49109;SDS011;34921;52.320;16.142;2022-11-15T01:00:37;51.48;;;30.52;;
49109;SDS011;34921;52.320;16.142;2022-11-15T01:03:04;49.03;;;30.23;;
49109;SDS011;34921;52.320;16.142;2022-11-15T01:05:31;48.73;;;29.63;;
49109;SDS011;34921;52.320;16.142;2022-11-15T01:07:58;50.50;;;30.17;;
49109;SDS011;34921;52.320;16.142;2022-11-15T01:10:25;50.35;;;30.25;;
49109;SDS011;34921;52.320;16.142;2022-11-15T01:12:52;58.38;;;31.93;;
49109;SDS011;34921;52.320;16.142;2022-11-15T01:15:19;57.88;;;32.30;;
49109;SDS011;34921;52.320;16.142;2022-11-15T01:17:46;53.87;;;32.10;;
49109;SDS011;34921;52.320;16.142;2022-11-15T01:20:13;56.37;;;34.00;;
49109;SDS011;34921;52.320;16.142;2022-11-15T01:22:40;62.65;;;37.33;;
49109;SDS011;34921;52.320;16.142;2022-11-15T01:25:07;64.58;;;35.33;;
49109;SDS011;34921;52.320;16.142;2022-11-15T01:27:34;53.25;;;32.28;;
49109;SDS011;34921;52.320;16.142;2022-11-15T01:30:01;46.90;;;29.63;;
49109;SDS011;34921;52.320;16.142;2022-11-15T01:32:29;46.88;;;27.55;;
49109;SDS011;34921;52.320;16.142;2022-11-15T01:34:56;47.40;;;28.15;;
49109;SDS011;34921;52.320;16.142;2022-11-15T01:37:23;43.17;;;26.37;;
49109;SDS011;34921;52.320;16.142;2022-11-15T01:39:50;44.88;;;26.87;;
49109;SDS011;34921;52.320;16.142;2022-11-15T01:42:17;43.42;;;27.05;;
49109;SDS011;34921;52.320;16.142;2022-11-15T01:44:48;53.52;;;29.27;;
49109;SDS011;34921;52.320;16.142;2022-11-15T01:47:17;45.12;;;26.25;;
49109;SDS011;34921;52.320;16.142;2022-11-15T01:50:08;45.60;;;28.53;;
49109;SDS011;34921;52.320;16.142;2022-11-15T01:52:33;45.48;;;27.80;;
49109;SDS011;34921;52.320;16.142;2022-11-15T01:55:08;45.17;;;27.10;;
49109;SDS011;34921;52.320;16.142;2022-11-15T01:57:36;44.25;;;27.25;;
49109;SDS011;34921;52.320;16.142;2022-11-15T02:00:03;45.50;;;27.07;;
49109;SDS011;34921;52.320;16.142;2022-11-15T02:02:31;39.58;;;26.07;;
49109;SDS011;34921;52.320;16.142;2022-11-15T02:04:59;43.13;;;27.52;;
49109;SDS011;34921;52.320;16.142;2022-11-15T02:07:26;47.20;;;27.35;;
49109;SDS011;34921;52.320;16.142;2022-11-15T02:09:54;45.78;;;27.85;;
49109;SDS011;34921;52.320;16.142;2022-11-15T02:12:22;41.18;;;26.15;;
49109;SDS011;34921;52.320;16.142;2022-11-15T02:14:51;40.12;;;26.00;;
49109;SDS011;34921;52.320;16.142;2022-11-15T02:33:03;42.50;;;26.02;;
49109;SDS011;34921;52.320;16.142;2022-11-15T02:38:07;44.37;;;27.43;;
49109;SDS011;34921;52.320;16.142;2022-11-15T02:43:10;39.70;;;25.82;;
49109;SDS011;34921;52.320;16.142;2022-11-15T02:46:00;41.30;;;25.08;;
49109;SDS011;34921;52.320;16.142;2022-11-15T02:48:29;41.88;;;25.35;;
49109;SDS011;34921;52.320;16.142;2022-11-15T02:50:57;39.18;;;25.37;;
49109;SDS011;34921;52.320;16.142;2022-11-15T02:53:25;41.70;;;26.52;;
49109;SDS011;34921;52.320;16.142;2022-11-15T02:55:52;42.48;;;26.05;;
49109;SDS011;34921;52.320;16.142;2022-11-15T03:00:58;40.03;;;25.82;;
49109;SDS011;34921;52.320;16.142;2022-11-15T03:03:40;46.73;;;28.45;;
49109;SDS011;34921;52.320;16.142;2022-11-15T03:11:14;44.65;;;25.97;;
49109;SDS011;34921;52.320;16.142;2022-11-15T03:16:30;41.10;;;26.30;;
49109;SDS011;34921;52.320;16.142;2022-11-15T03:19:01;55.83;;;29.82;;
49109;SDS011;34921;52.320;16.142;2022-11-15T03:21:30;49.93;;;29.20;;
49109;SDS011;34921;52.320;16.142;2022-11-15T03:24:01;46.58;;;28.30;;
49109;SDS011;34921;52.320;16.142;2022-11-15T03:28:58;44.27;;;26.27;;
49109;SDS011;34921;52.320;16.142;2022-11-15T03:31:28;50.85;;;28.85;;
49109;SDS011;34921;52.320;16.142;2022-11-15T03:34:38;46.55;;;26.57;;
49109;SDS011;34921;52.320;16.142;2022-11-15T03:37:02;41.08;;;25.25;;
49109;SDS011;34921;52.320;16.142;2022-11-15T03:39:29;39.83;;;24.67;;
49109;SDS011;34921;52.320;16.142;2022-11-15T03:49:31;41.92;;;25.15;;
49109;SDS011;34921;52.320;16.142;2022-11-15T03:52:02;40.60;;;26.13;;
49109;SDS011;34921;52.320;16.142;2022-11-15T03:54:29;38.15;;;23.50;;
49109;SDS011;34921;52.320;16.142;2022-11-15T03:56:56;41.90;;;25.25;;
49109;SDS011;34921;52.320;16.142;2022-11-15T03:59:23;40.00;;;24.25;;
49109;SDS011;34921;52.320;16.142;2022-11-15T04:01:50;41.42;;;24.55;;
49109;SDS011;34921;52.320;16.142;2022-11-15T04:04:17;35.63;;;22.90;;
49109;SDS011;34921;52.320;16.142;2022-11-15T04:06:44;40.70;;;24.60;;
49109;SDS011;34921;52.320;16.142;2022-11-15T04:09:11;42.70;;;25.40;;
49109;SDS011;34921;52.320;16.142;2022-11-15T04:11:38;40.80;;;24.25;;
49109;SDS011;34921;52.320;16.142;2022-11-15T04:14:05;42.35;;;24.72;;
49109;SDS011;34921;52.320;16.142;2022-11-15T04:16:32;50.30;;;28.92;;
49109;SDS011;34921;52.320;16.142;2022-11-15T04:18:59;47.03;;;27.80;;
49109;SDS011;34921;52.320;16.142;2022-11-15T04:21:45;40.73;;;25.30;;
49109;SDS011;34921;52.320;16.142;2022-11-15T04:24:31;37.65;;;23.77;;
49109;SDS011;34921;52.320;16.142;2022-11-15T04:26:58;40.80;;;25.65;;
49109;SDS011;34921;52.320;16.142;2022-11-15T04:29:25;40.05;;;26.05;;
49109;SDS011;34921;52.320;16.142;2022-11-15T04:32:05;36.63;;;24.18;;
49109;SDS011;34921;52.320;16.142;2022-11-15T04:34:32;38.70;;;24.47;;
49109;SDS011;34921;52.320;16.142;2022-11-15T04:36:59;35.03;;;23.15;;
49109;SDS011;34921;52.320;16.142;2022-11-15T04:39:39;34.20;;;22.98;;
49109;SDS011;34921;52.320;16.142;2022-11-15T04:42:06;39.23;;;24.43;;
49109;SDS011;34921;52.320;16.142;2022-11-15T04:44:33;39.13;;;24.25;;
49109;SDS011;34921;52.320;16.142;2022-11-15T04:47:00;40.60;;;25.62;;
49109;SDS011;34921;52.320;16.142;2022-11-15T04:49:27;40.40;;;24.65;;
49109;SDS011;34921;52.320;16.142;2022-11-15T04:51:54;40.08;;;25.05;;
49109;SDS011;34921;52.320;16.142;2022-11-15T04:54:21;40.30;;;25.40;;
49109;SDS011;34921;52.320;16.142;2022-11-15T04:56:48;38.65;;;24.52;;
49109;SDS011;34921;52.320;16.142;2022-11-15T04:59:15;37.80;;;24.77;;
49109;SDS011;34921;52.320;16.142;2022-11-15T05:01:42;42.53;;;25.85;;
49109;SDS011;34921;52.320;16.142;2022-11-15T05:04:09;39.40;;;24.35;;
49109;SDS011;34921;52.320;16.142;2022-11-15T05:06:48;39.60;;;24.77;;
49109;SDS011;34921;52.320;16.142;2022-11-15T05:09:16;37.28;;;23.60;;
49109;SDS011;34921;52.320;16.142;2022-11-15T05:11:44;38.63;;;24.32;;
49109;SDS011;34921;52.320;16.142;2022-11-15T05:14:11;37.25;;;23.52;;
49109;SDS011;34921;52.320;16.142;2022-11-15T05:16:38;38.08;;;24.67;;
49109;SDS011;34921;52.320;16.142;2022-11-15T05:19:05;43.65;;;25.68;;
49109;SDS011;34921;52.320;16.142;2022-11-15T05:21:32;40.48;;;24.95;;
49109;SDS011;34921;52.320;16.142;2022-11-15T05:23:59;41.30;;;24.35;;
49109;SDS011;34921;52.320;16.142;2022-11-15T05:26:27;41.02;;;24.12;;
49109;SDS011;34921;52.320;16.142;2022-11-15T05:28:55;40.48;;;24.98;;
49109;SDS011;34921;52.320;16.142;2022-11-15T05:31:22;42.20;;;24.37;;
49109;SDS011;34921;52.320;16.142;2022-11-15T05:33:49;41.47;;;24.67;;
49109;SDS011;34921;52.320;16.142;2022-11-15T05:38:54;40.95;;;25.43;;
49109;SDS011;34921;52.320;16.142;2022-11-15T05:41:22;42.20;;;25.32;;
49109;SDS011;34921;52.320;16.142;2022-11-15T05:43:51;43.68;;;25.45;;
49109;SDS011;34921;52.320;16.142;2022-11-15T05:46:18;39.42;;;24.95;;
49109;SDS011;34921;52.320;16.142;2022-11-15T05:48:46;37.40;;;23.92;;
49109;SDS011;34921;52.320;16.142;2022-11-15T05:51:15;37.88;;;23.90;;
49109;SDS011;34921;52.320;16.142;2022-11-15T05:53:43;39.80;;;24.77;;
49109;SDS011;34921;52.320;16.142;2022-11-15T05:56:11;40.85;;;24.80;;
49109;SDS011;34921;52.320;16.142;2022-11-15T05:58:38;39.63;;;23.15;;
49109;SDS011;34921;52.320;16.142;2022-11-15T06:01:05;42.25;;;24.43;;
49109;SDS011;34921;52.320;16.142;2022-11-15T06:03:32;39.40;;;23.75;;
49109;SDS011;34921;52.320;16.142;2022-11-15T06:05:59;42.75;;;24.30;;
49109;SDS011;34921;52.320;16.142;2022-11-15T06:08:26;39.95;;;24.43;;
49109;SDS011;34921;52.320;16.142;2022-11-15T06:10:53;40.45;;;23.40;;
49109;SDS011;34921;52.320;16.142;2022-11-15T06:13:20;41.42;;;23.90;;
49109;SDS011;34921;52.320;16.142;2022-11-15T06:15:47;44.13;;;25.30;;
49109;SDS011;34921;52.320;16.142;2022-11-15T06:18:14;42.48;;;23.80;;
49109;SDS011;34921;52.320;16.142;2022-11-15T06:20:41;38.60;;;22.65;;
49109;SDS011;34921;52.320;16.142;2022-11-15T06:23:08;41.55;;;23.38;;
49109;SDS011;34921;52.320;16.142;2022-11-15T06:25:36;35.55;;;23.52;;
49109;SDS011;34921;52.320;16.142;2022-11-15T06:28:03;34.38;;;20.88;;
49109;SDS011;34921;52.320;16.142;2022-11-15T06:30:30;34.15;;;21.93;;
49109;SDS011;34921;52.320;16.142;2022-11-15T06:33:03;34.13;;;21.97;;
49109;SDS011;34921;52.320;16.142;2022-11-15T06:35:32;37.75;;;21.97;;
49109;SDS011;34921;52.320;16.142;2022-11-15T06:38:03;39.08;;;23.95;;
49109;SDS011;34921;52.320;16.142;2022-11-15T06:40:32;32.80;;;21.45;;
49109;SDS011;34921;52.320;16.142;2022-11-15T06:42:59;36.50;;;21.27;;
49109;SDS011;34921;52.320;16.142;2022-11-15T06:45:26;35.90;;;22.42;;
49109;SDS011;34921;52.320;16.142;2022-11-15T06:47:54;36.88;;;22.17;;
49109;SDS011;34921;52.320;16.142;2022-11-15T06:50:21;42.65;;;24.90;;
49109;SDS011;34921;52.320;16.142;2022-11-15T06:52:48;38.23;;;24.37;;
49109;SDS011;34921;52.320;16.142;2022-11-15T06:55:15;40.17;;;24.05;;
49109;SDS011;34921;52.320;16.142;2022-11-15T06:57:49;40.43;;;25.43;;
49109;SDS011;34921;52.320;16.142;2022-11-15T07:00:17;44.80;;;26.73;;
49109;SDS011;34921;52.320;16.142;2022-11-15T07:02:44;50.85;;;27.05;;
49109;SDS011;34921;52.320;16.142;2022-11-15T07:05:12;43.35;;;24.35;;
49109;SDS011;34921;52.320;16.142;2022-11-15T07:07:39;36.95;;;23.35;;
49109;SDS011;34921;52.320;16.142;2022-11-15T07:10:07;37.73;;;22.17;;
49109;SDS011;34921;52.320;16.142;2022-11-15T07:12:34;37.70;;;21.35;;
49109;SDS011;34921;52.320;16.142;2022-11-15T07:15:01;39.92;;;22.52;;
49109;SDS011;34921;52.320;16.142;2022-11-15T07:17:28;47.15;;;27.52;;
49109;SDS011;34921;52.320;16.142;2022-11-15T07:19:55;50.05;;;30.12;;
49109;SDS011;34921;52.320;16.142;2022-11-15T07:22:22;52.33;;;34.55;;
49109;SDS011;34921;52.320;16.142;2022-11-15T07:24:49;49.67;;;32.48;;
49109;SDS011;34921;52.320;16.142;2022-11-15T07:27:16;49.35;;;28.87;;
49109;SDS011;34921;52.320;16.142;2022-11-15T07:29:43;50.25;;;29.50;;
49109;SDS011;34921;52.320;16.142;2022-11-15T07:32:10;53.68;;;30.10;;
49109;SDS011;34921;52.320;16.142;2022-11-15T07:34:37;117.72;;;62.13;;
49109;SDS011;34921;52.320;16.142;2022-11-15T07:37:04;127.62;;;70.65;;
49109;SDS011;34921;52.320;16.142;2022-11-15T07:39:31;97.47;;;63.48;;
49109;SDS011;34921;52.320;16.142;2022-11-15T07:41:58;101.50;;;62.43;;
49109;SDS011;34921;52.320;16.142;2022-11-15T07:44:44;83.30;;;49.88;;
49109;SDS011;34921;52.320;16.142;2022-11-15T07:47:11;49.75;;;28.60;;
49109;SDS011;34921;52.320;16.142;2022-11-15T07:49:38;55.45;;;32.95;;
49109;SDS011;34921;52.320;16.142;2022-11-15T07:52:05;48.85;;;29.92;;
49109;SDS011;34921;52.320;16.142;2022-11-15T07:54:32;50.50;;;31.70;;
49109;SDS011;34921;52.320;16.142;2022-11-15T07:56:59;46.85;;;28.52;;
49109;SDS011;34921;52.320;16.142;2022-11-15T07:59:26;42.88;;;25.45;;
49109;SDS011;34921;52.320;16.142;2022-11-15T08:01:53;36.58;;;23.77;;
49109;SDS011;34921;52.320;16.142;2022-11-15T08:04:20;35.45;;;24.37;;
49109;SDS011;34921;52.320;16.142;2022-11-15T08:06:47;37.35;;;23.12;;
49109;SDS011;34921;52.320;16.142;2022-11-15T08:09:14;36.23;;;23.47;;
49109;SDS011;34921;52.320;16.142;2022-11-15T08:11:41;35.80;;;23.52;;
49109;SDS011;34921;52.320;16.142;2022-11-15T08:14:08;35.52;;;24.25;;
49109;SDS011;34921;52.320;16.142;2022-11-15T08:16:35;43.20;;;24.82;;
49109;SDS011;34921;52.320;16.142;2022-11-15T08:19:02;42.45;;;26.73;;
49109;SDS011;34921;52.320;16.142;2022-11-15T08:21:29;46.00;;;28.35;;
49109;SDS011;34921;52.320;16.142;2022-11-15T08:23:56;51.30;;;30.10;;
49109;SDS011;34921;52.320;16.142;2022-11-15T08:26:23;42.88;;;27.82;;
49109;SDS011;34921;52.320;16.142;2022-11-15T08:28:51;41.55;;;27.00;;
49109;SDS011;34921;52.320;16.142;2022-11-15T08:31:18;42.27;;;26.20;;
49109;SDS011;34921;52.320;16.142;2022-11-15T08:33:45;37.30;;;25.02;;
49109;SDS011;34921;52.320;16.142;2022-11-15T08:36:15;37.55;;;25.92;;
49109;SDS011;34921;52.320;16.142;2022-11-15T08:38:42;36.40;;;25.48;;
49109;SDS011;34921;52.320;16.142;2022-11-15T08:41:11;43.80;;;28.07;;
49109;SDS011;34921;52.320;16.142;2022-11-15T08:43:39;43.83;;;29.20;;
49109;SDS011;34921;52.320;16.142;2022-11-15T08:46:07;65.05;;;35.48;;
49109;SDS011;34921;52.320;16.142;2022-11-15T08:48:35;57.48;;;33.05;;
49109;SDS011;34921;52.320;16.142;2022-11-15T08:51:02;63.48;;;34.67;;
49109;SDS011;34921;52.320;16.142;2022-11-15T08:53:29;54.73;;;32.25;;
49109;SDS011;34921;52.320;16.142;2022-11-15T08:55:56;42.38;;;28.23;;
49109;SDS011;34921;52.320;16.142;2022-11-15T08:58:23;41.53;;;27.58;;
49109;SDS011;34921;52.320;16.142;2022-11-15T09:00:50;48.40;;;29.90;;
49109;SDS011;34921;52.320;16.142;2022-11-15T09:03:17;42.30;;;26.55;;
49109;SDS011;34921;52.320;16.142;2022-11-15T09:05:44;48.38;;;30.45;;
49109;SDS011;34921;52.320;16.142;2022-11-15T09:08:11;51.63;;;31.30;;
49109;SDS011;34921;52.320;16.142;2022-11-15T09:10:39;45.52;;;29.77;;
49109;SDS011;34921;52.320;16.142;2022-11-15T09:13:06;42.65;;;29.32;;
49109;SDS011;34921;52.320;16.142;2022-11-15T09:15:33;46.13;;;31.10;;
49109;SDS011;34921;52.320;16.142;2022-11-15T09:18:00;49.55;;;30.23;;
49109;SDS011;34921;52.320;16.142;2022-11-15T09:20:27;44.25;;;29.48;;
49109;SDS011;34921;52.320;16.142;2022-11-15T09:22:54;44.55;;;29.40;;
49109;SDS011;34921;52.320;16.142;2022-11-15T09:25:22;38.83;;;27.65;;
49109;SDS011;34921;52.320;16.142;2022-11-15T09:27:49;42.05;;;27.40;;
49109;SDS011;34921;52.320;16.142;2022-11-15T09:30:16;39.58;;;27.42;;
49109;SDS011;34921;52.320;16.142;2022-11-15T09:32:43;42.70;;;28.27;;
49109;SDS011;34921;52.320;16.142;2022-11-15T09:35:10;45.15;;;28.62;;
49109;SDS011;34921;52.320;16.142;2022-11-15T09:37:37;44.95;;;29.12;;
49109;SDS011;34921;52.320;16.142;2022-11-15T09:40:04;45.43;;;28.62;;
49109;SDS011;34921;52.320;16.142;2022-11-15T09:45:28;55.10;;;31.93;;
49109;SDS011;34921;52.320;16.142;2022-11-15T09:48:11;46.18;;;31.48;;
49109;SDS011;34921;52.320;16.142;2022-11-15T09:50:45;48.10;;;30.48;;
49109;SDS011;34921;52.320;16.142;2022-11-15T09:53:14;42.35;;;26.62;;
49109;SDS011;34921;52.320;16.142;2022-11-15T09:55:46;35.90;;;25.15;;
49109;SDS011;34921;52.320;16.142;2022-11-15T09:58:36;36.35;;;25.17;;
49109;SDS011;34921;52.320;16.142;2022-11-15T10:01:04;37.13;;;23.90;;
49109;SDS011;34921;52.320;16.142;2022-11-15T10:03:33;38.90;;;25.43;;
49109;SDS011;34921;52.320;16.142;2022-11-15T10:06:02;35.15;;;23.62;;
49109;SDS011;34921;52.320;16.142;2022-11-15T10:10:58;34.53;;;23.70;;
49109;SDS011;34921;52.320;16.142;2022-11-15T10:13:28;32.33;;;23.90;;
49109;SDS011;34921;52.320;16.142;2022-11-15T10:23:45;34.05;;;23.83;;
49109;SDS011;34921;52.320;16.142;2022-11-15T10:26:14;36.15;;;24.23;;
49109;SDS011;34921;52.320;16.142;2022-11-15T10:28:42;32.93;;;23.57;;
49109;SDS011;34921;52.320;16.142;2022-11-15T10:31:22;38.15;;;23.55;;
49109;SDS011;34921;52.320;16.142;2022-11-15T10:33:49;34.33;;;23.50;;
49109;SDS011;34921;52.320;16.142;2022-11-15T10:36:18;35.03;;;23.92;;
49109;SDS011;34921;52.320;16.142;2022-11-15T10:41:17;33.58;;;23.85;;
49109;SDS011;34921;52.320;16.142;2022-11-15T10:43:44;35.85;;;23.07;;
49109;SDS011;34921;52.320;16.142;2022-11-15T10:46:19;34.27;;;22.73;;
49109;SDS011;34921;52.320;16.142;2022-11-15T10:48:46;31.50;;;22.60;;
49109;SDS011;34921;52.320;16.142;2022-11-15T10:51:27;32.98;;;22.67;;
49109;SDS011;34921;52.320;16.142;2022-11-15T10:53:59;33.78;;;23.75;;
49109;SDS011;34921;52.320;16.142;2022-11-15T10:56:26;34.23;;;24.43;;
49109;SDS011;34921;52.320;16.142;2022-11-15T10:58:54;37.30;;;25.70;;
49109;SDS011;34921;52.320;16.142;2022-11-15T11:01:23;35.30;;;24.52;;
49109;SDS011;34921;52.320;16.142;2022-11-15T11:06:25;37.28;;;25.10;;
49109;SDS011;34921;52.320;16.142;2022-11-15T11:08:58;33.48;;;23.35;;
49109;SDS011;34921;52.320;16.142;2022-11-15T11:11:27;33.75;;;24.02;;
49109;SDS011;34921;52.320;16.142;2022-11-15T11:14:16;31.50;;;22.55;;
49109;SDS011;34921;52.320;16.142;2022-11-15T11:16:46;31.87;;;22.62;;
49109;SDS011;34921;52.320;16.142;2022-11-15T11:19:18;30.40;;;22.30;;
49109;SDS011;34921;52.320;16.142;2022-11-15T11:24:41;32.85;;;23.65;;
49109;SDS011;34921;52.320;16.142;2022-11-15T11:35:30;42.93;;;27.20;;
49109;SDS011;34921;52.320;16.142;2022-11-15T11:38:17;43.38;;;28.57;;
49109;SDS011;34921;52.320;16.142;2022-11-15T11:41:30;45.85;;;27.42;;
49109;SDS011;34921;52.320;16.142;2022-11-15T11:43:40;41.00;;;27.10;;
49109;SDS011;34921;52.320;16.142;2022-11-15T11:48:40;51.75;;;30.52;;
49109;SDS011;34921;52.320;16.142;2022-11-15T11:51:39;47.13;;;30.52;;
49109;SDS011;34921;52.320;16.142;2022-11-15T11:54:04;49.23;;;33.20;;
49109;SDS011;34921;52.320;16.142;2022-11-15T11:56:33;46.80;;;28.95;;
49109;SDS011;34921;52.320;16.142;2022-11-15T11:59:15;40.90;;;28.67;;
49109;SDS011;34921;52.320;16.142;2022-11-15T12:01:44;48.73;;;31.12;;
49109;SDS011;34921;52.320;16.142;2022-11-15T12:16:58;41.33;;;27.95;;
49109;SDS011;34921;52.320;16.142;2022-11-15T12:19:25;42.30;;;27.73;;
49109;SDS011;34921;52.320;16.142;2022-11-15T12:21:55;52.00;;;34.03;;
49109;SDS011;34921;52.320;16.142;2022-11-15T12:24:28;54.63;;;34.92;;
49109;SDS011;34921;52.320;16.142;2022-11-15T12:27:05;36.75;;;24.90;;
49109;SDS011;34921;52.320;16.142;2022-11-15T12:29:40;36.08;;;24.63;;
49109;SDS011;34921;52.320;16.142;2022-11-15T12:32:28;34.50;;;24.27;;
49109;SDS011;34921;52.320;16.142;2022-11-15T12:34:55;33.75;;;23.35;;
49109;SDS011;34921;52.320;16.142;2022-11-15T12:40:15;32.53;;;23.38;;
49109;SDS011;34921;52.320;16.142;2022-11-15T12:47:51;31.45;;;23.05;;
49109;SDS011;34921;52.320;16.142;2022-11-15T12:50:45;40.40;;;26.37;;
49109;SDS011;34921;52.320;16.142;2022-11-15T13:06:47;32.98;;;25.25;;
49109;SDS011;34921;52.320;16.142;2022-11-15T13:11:57;35.50;;;28.23;;
49109;SDS011;34921;52.320;16.142;2022-11-15T13:19:43;34.70;;;25.90;;
49109;SDS011;34921;52.320;16.142;2022-11-15T13:22:12;38.08;;;28.27;;
49109;SDS011;34921;52.320;16.142;2022-11-15T13:24:57;40.70;;;29.00;;
49109;SDS011;34921;52.320;16.142;2022-11-15T13:27:25;43.42;;;29.75;;
49109;SDS011;34921;52.320;16.142;2022-11-15T13:29:52;43.78;;;31.00;;
49109;SDS011;34921;52.320;16.142;2022-11-15T13:32:20;57.33;;;33.50;;
49109;SDS011;34921;52.320;16.142;2022-11-15T13:34:47;54.20;;;34.95;;
49109;SDS011;34921;52.320;16.142;2022-11-15T13:37:36;57.48;;;39.03;;
49109;SDS011;34921;52.320;16.142;2022-11-15T13:42:48;52.35;;;34.90;;
49109;SDS011;34921;52.320;16.142;2022-11-15T13:45:15;46.68;;;31.87;;
49109;SDS011;34921;52.320;16.142;2022-11-15T13:47:43;52.33;;;34.63;;
49109;SDS011;34921;52.320;16.142;2022-11-15T13:50:11;49.90;;;34.75;;
49109;SDS011;34921;52.320;16.142;2022-11-15T13:52:39;50.03;;;34.03;;
49109;SDS011;34921;52.320;16.142;2022-11-15T13:55:13;48.30;;;33.10;;
49109;SDS011;34921;52.320;16.142;2022-11-15T13:57:43;54.30;;;34.83;;
49109;SDS011;34921;52.320;16.142;2022-11-15T14:02:50;74.97;;;39.00;;
49109;SDS011;34921;52.320;16.142;2022-11-15T14:05:19;84.95;;;41.98;;
49109;SDS011;34921;52.320;16.142;2022-11-15T14:07:57;87.72;;;43.33;;
49109;SDS011;34921;52.320;16.142;2022-11-15T14:10:28;119.50;;;54.98;;
49109;SDS011;34921;52.320;16.142;2022-11-15T14:12:55;105.85;;;53.10;;
49109;SDS011;34921;52.320;16.142;2022-11-15T14:15:27;125.05;;;60.33;;
49109;SDS011;34921;52.320;16.142;2022-11-15T14:17:55;97.95;;;50.35;;
49109;SDS011;34921;52.320;16.142;2022-11-15T14:22:52;75.15;;;42.95;;
49109;SDS011;34921;52.320;16.142;2022-11-15T14:25:21;76.20;;;42.93;;
49109;SDS011;34921;52.320;16.142;2022-11-15T14:30:34;69.07;;;40.85;;
49109;SDS011;34921;52.320;16.142;2022-11-15T14:33:01;73.70;;;42.27;;
49109;SDS011;34921;52.320;16.142;2022-11-15T14:35:29;75.67;;;43.75;;
49109;SDS011;34921;52.320;16.142;2022-11-15T14:37:56;79.85;;;46.75;;
49109;SDS011;34921;52.320;16.142;2022-11-15T14:40:23;83.97;;;49.00;;
49109;SDS011;34921;52.320;16.142;2022-11-15T14:42:50;87.00;;;50.15;;
49109;SDS011;34921;52.320;16.142;2022-11-15T14:45:21;83.40;;;46.90;;
49109;SDS011;34921;52.320;16.142;2022-11-15T14:47:48;85.03;;;47.10;;
49109;SDS011;34921;52.320;16.142;2022-11-15T14:50:16;84.80;;;44.85;;
49109;SDS011;34921;52.320;16.142;2022-11-15T14:52:44;85.90;;;46.60;;
49109;SDS011;34921;52.320;16.142;2022-11-15T14:55:21;89.20;;;45.40;;
49109;SDS011;34921;52.320;16.142;2022-11-15T14:57:50;83.90;;;45.58;;
49109;SDS011;34921;52.320;16.142;2022-11-15T15:00:17;81.37;;;46.02;;
49109;SDS011;34921;52.320;16.142;2022-11-15T15:02:44;86.08;;;46.15;;
49109;SDS011;34921;52.320;16.142;2022-11-15T15:07:42;81.78;;;43.73;;
49109;SDS011;34921;52.320;16.142;2022-11-15T15:10:09;85.95;;;46.35;;
49109;SDS011;34921;52.320;16.142;2022-11-15T15:12:36;80.00;;;43.40;;
49109;SDS011;34921;52.320;16.142;2022-11-15T15:15:03;87.47;;;47.08;;
49109;SDS011;34921;52.320;16.142;2022-11-15T15:17:31;88.03;;;47.35;;
49109;SDS011;34921;52.320;16.142;2022-11-15T15:19:58;104.78;;;53.13;;
49109;SDS011;34921;52.320;16.142;2022-11-15T15:22:25;96.57;;;54.55;;
49109;SDS011;34921;52.320;16.142;2022-11-15T15:24:54;122.55;;;61.65;;
49109;SDS011;34921;52.320;16.142;2022-11-15T15:27:21;85.45;;;45.92;;
49109;SDS011;34921;52.320;16.142;2022-11-15T15:29:48;76.53;;;44.18;;
49109;SDS011;34921;52.320;16.142;2022-11-15T15:32:15;86.80;;;47.23;;
49109;SDS011;34921;52.320;16.142;2022-11-15T15:34:43;76.45;;;43.28;;
49109;SDS011;34921;52.320;16.142;2022-11-15T15:37:25;69.80;;;40.55;;
49109;SDS011;34921;52.320;16.142;2022-11-15T15:39:53;70.97;;;40.58;;
49109;SDS011;34921;52.320;16.142;2022-11-15T15:42:20;71.33;;;41.05;;
49109;SDS011;34921;52.320;16.142;2022-11-15T15:44:48;71.42;;;41.50;;
49109;SDS011;34921;52.320;16.142;2022-11-15T15:47:19;73.35;;;41.40;;
49109;SDS011;34921;52.320;16.142;2022-11-15T15:49:47;73.37;;;41.58;;
49109;SDS011;34921;52.320;16.142;2022-11-15T15:52:14;65.17;;;38.98;;
49109;SDS011;34921;52.320;16.142;2022-11-15T15:54:42;66.50;;;39.27;;
49109;SDS011;34921;52.320;16.142;2022-11-15T15:57:11;62.17;;;37.00;;
49109;SDS011;34921;52.320;16.142;2022-11-15T15:59:39;63.07;;;37.67;;
49109;SDS011;34921;52.320;16.142;2022-11-15T16:02:08;68.45;;;40.23;;
49109;SDS011;34921;52.320;16.142;2022-11-15T16:04:35;67.00;;;41.42;;
49109;SDS011;34921;52.320;16.142;2022-11-15T16:07:03;64.53;;;38.30;;
49109;SDS011;34921;52.320;16.142;2022-11-15T16:09:31;63.50;;;38.70;;
49109;SDS011;34921;52.320;16.142;2022-11-15T16:12:17;71.37;;;43.60;;
49109;SDS011;34921;52.320;16.142;2022-11-15T16:14:44;63.28;;;38.83;;
49109;SDS011;34921;52.320;16.142;2022-11-15T16:17:14;79.58;;;45.20;;
49109;SDS011;34921;52.320;16.142;2022-11-15T16:19:42;197.62;;;81.63;;
49109;SDS011;34921;52.320;16.142;2022-11-15T16:22:09;139.72;;;68.15;;
49109;SDS011;34921;52.320;16.142;2022-11-15T16:24:37;71.97;;;43.75;;
49109;SDS011;34921;52.320;16.142;2022-11-15T16:27:04;60.83;;;38.60;;
49109;SDS011;34921;52.320;16.142;2022-11-15T16:29:31;77.85;;;47.95;;
49109;SDS011;34921;52.320;16.142;2022-11-15T16:32:00;106.00;;;64.30;;